createdAt,value
2018-07-17T00:04:54.685Z,19.20
2018-07-17T00:07:28.089Z,19.40
2018-07-17T00:13:04.777Z,19.20
2018-07-17T00:15:39.262Z,19.30
2018-07-17T00:26:56.538Z,19.20
2018-07-17T00:29:39.425Z,19.40
2018-07-17T00:32:09.810Z,19.20
2018-07-17T00:34:39.705Z,19.30
2018-07-17T00:37:09.571Z,19.30
2018-07-17T00:39:39.478Z,19.30
2018-07-17T00:42:09.373Z,19.30
2018-07-17T00:47:14.605Z,19.30
2018-07-17T00:49:44.472Z,19.40
2018-07-17T00:52:14.360Z,19.40
2018-07-17T00:54:44.179Z,19.60
2018-07-17T00:57:14.609Z,19.80
2018-07-17T01:02:19.609Z,19.80
2018-07-17T01:04:54.625Z,19.60
2018-07-17T01:07:29.692Z,19.50
2018-07-17T01:10:04.897Z,19.70
2018-07-17T01:12:34.075Z,19.80
2018-07-17T01:15:11.827Z,20.00
2018-07-17T01:17:41.753Z,19.80
2018-07-17T01:20:11.967Z,19.90
2018-07-17T01:22:41.771Z,19.70
2018-07-17T01:25:11.658Z,19.80
2018-07-17T01:27:41.710Z,19.80
2018-07-17T01:30:11.581Z,19.80
2018-07-17T01:32:41.494Z,19.90
2018-07-17T01:35:11.428Z,19.80
2018-07-17T01:37:41.585Z,19.80
2018-07-17T01:40:11.496Z,19.70
2018-07-17T01:42:41.412Z,19.80
2018-07-17T01:45:11.244Z,19.80
2018-07-17T01:47:41.071Z,19.90
2018-07-17T01:50:10.958Z,19.90
2018-07-17T01:52:40.920Z,19.80
2018-07-17T01:57:40.216Z,20.10
2018-07-17T02:00:09.956Z,20.10
2018-07-17T02:02:39.840Z,20.00
2018-07-17T02:05:09.653Z,20.10
2018-07-17T02:07:39.495Z,20.00
2018-07-17T02:10:09.346Z,20.20
2018-07-17T02:12:39.237Z,20.10
2018-07-17T02:15:09.053Z,20.20
2018-07-17T02:17:38.802Z,20.20
2018-07-17T02:20:10.490Z,19.90
2018-07-17T02:22:40.170Z,19.90
2018-07-17T02:25:09.932Z,20.10
2018-07-17T02:27:39.688Z,20.00
2018-07-17T02:30:09.435Z,19.90
2018-07-17T02:32:40.014Z,19.90
2018-07-17T02:35:10.440Z,19.80
2018-07-17T02:37:40.448Z,19.80
2018-07-17T02:40:10.199Z,20.00
2018-07-17T02:42:40.811Z,20.30
2018-07-17T02:45:10.593Z,20.40
2018-07-17T02:47:40.637Z,20.30
2018-07-17T02:50:10.593Z,20.30
2018-07-17T02:52:41.145Z,20.20
2018-07-17T02:55:10.919Z,20.30
2018-07-17T02:57:40.881Z,20.20
2018-07-17T03:00:10.710Z,20.40
2018-07-17T03:02:40.566Z,20.30
2018-07-17T03:05:10.498Z,20.10
2018-07-17T03:07:40.335Z,20.00
2018-07-17T03:10:10.112Z,19.90
2018-07-17T03:12:39.822Z,19.80
2018-07-17T03:15:09.626Z,19.90
2018-07-17T03:17:39.416Z,20.10
2018-07-17T03:20:09.248Z,19.90
2018-07-17T03:22:45.164Z,19.70
2018-07-17T03:25:24.176Z,19.40
2018-07-17T03:28:14.142Z,19.40
2018-07-17T03:33:23.883Z,19.50
2018-07-17T03:36:03.637Z,19.10
2018-07-17T03:38:41.920Z,19.10
2018-07-17T03:41:19.028Z,19.10
2018-07-17T03:46:39.487Z,19.00
2018-07-17T03:54:32.739Z,18.60
2018-07-17T03:57:09.580Z,18.80
2018-07-17T03:59:48.300Z,18.70
2018-07-17T04:02:26.463Z,18.80
2018-07-17T04:05:07.245Z,18.90
2018-07-17T04:07:48.997Z,18.90
2018-07-17T04:10:32.667Z,19.00
2018-07-17T04:13:07.397Z,19.00
2018-07-17T04:15:48.173Z,19.30
2018-07-17T04:18:27.305Z,19.60
2018-07-17T04:21:04.068Z,19.50
2018-07-17T04:23:38.095Z,19.70
2018-07-17T04:26:14.809Z,20.10
2018-07-17T04:28:53.181Z,20.00
2018-07-17T04:31:30.178Z,19.80
2018-07-17T04:34:10.111Z,19.80
2018-07-17T04:39:33.057Z,20.20
2018-07-17T04:42:11.800Z,20.20
2018-07-17T04:44:59.231Z,20.30
2018-07-17T04:50:40.641Z,20.90
2018-07-17T04:56:05.269Z,21.30
2018-07-17T04:58:43.751Z,21.20
2018-07-17T05:06:48.535Z,21.60
2018-07-17T05:09:29.308Z,21.80
2018-07-17T05:12:09.039Z,21.70
2018-07-17T05:14:42.339Z,21.80
2018-07-17T05:19:56.941Z,21.80
2018-07-17T05:25:22.500Z,21.60
2018-07-17T05:28:08.841Z,22.10
2018-07-17T05:30:45.674Z,21.50
2018-07-17T05:33:28.137Z,21.70
2018-07-17T05:36:05.654Z,22.10
2018-07-17T05:38:47.401Z,21.60
2018-07-17T05:41:31.226Z,21.90
2018-07-17T05:44:06.122Z,22.00
2018-07-17T05:46:48.171Z,22.60
2018-07-17T05:49:30.307Z,22.90
2018-07-17T05:52:06.118Z,23.10
2018-07-17T05:54:50.524Z,23.20
2018-07-17T06:00:07.616Z,22.50
2018-07-17T06:05:36.364Z,23.30
2018-07-17T06:08:23.600Z,23.00
2018-07-17T06:11:02.215Z,23.20
2018-07-17T06:13:41.453Z,23.40
2018-07-17T06:16:18.020Z,24.00
2018-07-17T06:21:38.385Z,23.40
2018-07-17T06:24:18.489Z,23.30
2018-07-17T06:26:58.709Z,23.50
2018-07-17T06:29:40.334Z,23.80
2018-07-17T06:34:53.782Z,23.40
2018-07-17T06:37:35.524Z,23.50
2018-07-17T06:40:17.152Z,23.70
2018-07-17T06:42:55.991Z,23.50
2018-07-17T06:45:39.723Z,23.40
2018-07-17T06:48:18.026Z,23.50
2018-07-17T06:50:58.741Z,23.70
2018-07-17T06:53:35.885Z,23.90
2018-07-17T06:58:56.003Z,23.70
2018-07-17T07:01:32.316Z,24.00
2018-07-17T07:04:17.833Z,24.20
2018-07-17T07:07:01.515Z,24.30
2018-07-17T07:09:38.140Z,24.10
2018-07-17T07:12:24.984Z,24.10
2018-07-17T07:15:05.076Z,24.20
2018-07-17T07:17:48.237Z,24.30
2018-07-17T07:20:24.593Z,24.10
2018-07-17T07:23:02.165Z,24.10
2018-07-17T07:25:42.783Z,24.30
2018-07-17T07:28:22.296Z,24.40
2018-07-17T07:30:57.474Z,24.40
2018-07-17T07:33:35.055Z,24.50
2018-07-17T07:36:10.203Z,24.50
2018-07-17T07:38:49.625Z,24.40
2018-07-17T07:41:28.648Z,24.40
2018-07-17T07:46:47.323Z,23.80
2018-07-17T07:52:01.422Z,24.00
2018-07-17T07:54:36.463Z,24.10
2018-07-17T07:57:17.613Z,24.30
2018-07-17T07:59:57.899Z,24.10
2018-07-17T08:02:36.076Z,24.40
2018-07-17T08:08:01.945Z,24.00
2018-07-17T08:10:41.607Z,23.50
2018-07-17T08:13:16.969Z,23.70
2018-07-17T08:18:31.908Z,23.40
2018-07-17T08:21:10.618Z,23.20
2018-07-17T08:23:51.547Z,23.40
2018-07-17T08:26:33.091Z,23.60
2018-07-17T08:29:10.511Z,23.80
2018-07-17T08:31:48.982Z,23.80
2018-07-17T08:34:27.937Z,24.00
2018-07-17T08:37:11.155Z,24.30
2018-07-17T08:39:48.880Z,24.50
2018-07-17T08:42:28.797Z,24.50
2018-07-17T08:45:09.711Z,24.40
2018-07-17T08:47:51.150Z,24.30
2018-07-17T08:53:15.059Z,24.50
2018-07-17T08:55:55.977Z,24.20
2018-07-17T08:58:35.739Z,24.40
2018-07-17T09:04:06.676Z,24.40
2018-07-17T09:06:49.149Z,24.10
2018-07-17T09:09:29.744Z,24.40
2018-07-17T09:12:10.283Z,24.50
2018-07-17T09:14:51.888Z,24.40
2018-07-17T09:17:29.308Z,23.90
2018-07-17T09:20:07.661Z,23.90
2018-07-17T09:28:08.488Z,25.10
2018-07-17T09:30:49.644Z,25.30
2018-07-17T09:33:32.280Z,25.50
2018-07-17T09:39:01.901Z,25.80
2018-07-17T09:41:39.276Z,25.60
2018-07-17T09:49:42.337Z,26.10
2018-07-17T09:52:18.427Z,25.90
2018-07-17T09:54:55.837Z,25.90
2018-07-17T09:57:40.723Z,26.00
2018-07-17T10:00:26.300Z,25.80
2018-07-17T10:03:06.237Z,26.10
2018-07-17T10:05:41.115Z,25.70
2018-07-17T10:08:18.176Z,25.60
2018-07-17T10:11:00.496Z,25.70
2018-07-17T10:13:36.062Z,25.60
2018-07-17T10:16:21.886Z,25.20
2018-07-17T10:19:03.820Z,25.00
2018-07-17T10:21:42.782Z,25.20
2018-07-17T10:24:24.271Z,25.10
2018-07-17T10:27:03.365Z,25.20
2018-07-17T10:37:43.141Z,24.80
2018-07-17T10:40:27.519Z,24.90
2018-07-17T10:43:09.304Z,25.00
2018-07-17T10:45:47.409Z,25.20
2018-07-17T10:48:24.739Z,25.10
2018-07-17T10:56:34.229Z,24.20
2018-07-17T10:59:14.496Z,24.40
2018-07-17T11:01:55.601Z,24.70
2018-07-17T11:04:38.348Z,24.70
2018-07-17T11:07:14.064Z,24.50
2018-07-17T11:09:50.879Z,24.60
2018-07-17T11:12:35.566Z,24.80
2018-07-17T11:15:11.585Z,24.50
2018-07-17T11:17:51.199Z,24.40
2018-07-17T11:20:26.752Z,24.60
2018-07-17T11:23:06.935Z,24.60
2018-07-17T11:25:44.331Z,24.40
2018-07-17T11:31:05.062Z,24.20
2018-07-17T11:33:46.679Z,23.90
2018-07-17T11:36:21.891Z,24.10
2018-07-17T11:39:01.905Z,23.90
2018-07-17T11:41:36.980Z,23.90
2018-07-17T11:44:14.644Z,23.70
2018-07-17T11:46:53.344Z,23.90
2018-07-17T11:49:33.640Z,24.00
2018-07-17T11:52:17.162Z,23.90
2018-07-17T11:55:02.838Z,23.50
2018-07-17T11:57:41.923Z,23.90
2018-07-17T12:00:19.108Z,24.20
2018-07-17T12:03:01.186Z,24.30
2018-07-17T12:05:46.942Z,24.20
2018-07-17T12:08:24.202Z,24.00
2018-07-17T12:11:00.869Z,24.30
2018-07-17T12:13:39.137Z,23.70
2018-07-17T12:16:20.315Z,24.00
2018-07-17T12:19:05.536Z,24.00
2018-07-17T12:21:43.882Z,24.20
2018-07-17T12:24:22.532Z,24.00
2018-07-17T12:27:05.795Z,24.20
2018-07-17T12:29:44.227Z,24.70
2018-07-17T12:32:20.783Z,24.30
2018-07-17T12:35:09.995Z,24.20
2018-07-17T12:37:49.146Z,24.40
2018-07-17T12:43:04.191Z,24.80
2018-07-17T12:45:45.219Z,24.50
2018-07-17T12:48:29.065Z,24.80
2018-07-17T12:51:09.392Z,24.90
2018-07-17T12:53:48.725Z,25.30
2018-07-17T12:56:27.408Z,24.80
2018-07-17T12:59:08.390Z,25.10
2018-07-17T13:01:53.644Z,25.60
2018-07-17T13:04:27.580Z,25.10
2018-07-17T13:07:13.095Z,25.20
2018-07-17T13:09:54.842Z,25.70
2018-07-17T13:12:31.722Z,25.90
2018-07-17T13:15:14.665Z,26.20
2018-07-17T13:18:00.294Z,26.20
2018-07-17T13:20:45.741Z,26.10
2018-07-17T13:23:29.055Z,26.10
2018-07-17T13:26:08.528Z,26.30
2018-07-17T13:28:44.089Z,26.20
2018-07-17T13:31:22.864Z,25.80
2018-07-17T13:33:59.871Z,25.40
2018-07-17T13:36:39.352Z,25.50
2018-07-17T13:39:19.096Z,25.90
2018-07-17T13:44:29.926Z,26.80
2018-07-17T13:47:06.681Z,26.90
2018-07-17T13:49:48.929Z,27.20
2018-07-17T13:52:31.736Z,27.10
2018-07-17T13:55:11.443Z,27.30
2018-07-17T13:57:48.381Z,27.70
2018-07-17T14:03:06.616Z,28.60
2018-07-17T14:10:55.932Z,28.20
2018-07-17T14:13:34.157Z,28.20
2018-07-17T14:16:17.101Z,28.20
2018-07-17T14:18:58.578Z,28.00
2018-07-17T14:21:39.439Z,28.00
2018-07-17T14:24:16.230Z,27.70
2018-07-17T14:26:54.265Z,28.10
2018-07-17T14:29:36.702Z,28.50
2018-07-17T14:32:17.728Z,28.80
2018-07-17T14:35:01.203Z,29.10
2018-07-17T14:45:55.996Z,29.70
2018-07-17T14:48:40.545Z,29.10
2018-07-17T14:51:18.334Z,28.90
2018-07-17T14:53:57.693Z,29.50
2018-07-17T14:56:33.220Z,29.60
2018-07-17T14:59:12.091Z,29.90
2018-07-17T15:01:50.926Z,29.90
2018-07-17T15:04:27.639Z,29.50
2018-07-17T15:07:16.637Z,29.30
2018-07-17T15:15:14.700Z,29.80
2018-07-17T15:17:51.951Z,30.10
2018-07-17T15:20:37.396Z,30.30
2018-07-17T15:23:23.999Z,30.10
2018-07-17T15:26:02.834Z,29.90
2018-07-17T15:28:40.361Z,29.40
2018-07-17T15:31:21.015Z,29.40
2018-07-17T15:34:00.107Z,29.50
2018-07-17T15:36:42.120Z,29.30
2018-07-17T15:39:19.468Z,29.50
2018-07-17T15:44:41.067Z,29.50
2018-07-17T15:47:22.571Z,29.90
2018-07-17T15:50:06.697Z,29.70
2018-07-17T15:52:49.291Z,29.80
2018-07-17T15:55:28.924Z,29.70
2018-07-17T16:01:06.903Z,29.60
2018-07-17T16:03:51.577Z,29.50
2018-07-17T16:06:34.478Z,29.90
2018-07-17T16:12:11.458Z,30.40
2018-07-17T16:14:57.496Z,29.80
2018-07-17T16:17:32.060Z,29.30
2018-07-17T16:20:12.064Z,29.80
2018-07-17T16:25:36.999Z,28.80
2018-07-17T16:28:16.430Z,28.20
2018-07-17T16:30:57.328Z,28.40
2018-07-17T16:33:39.596Z,28.20
2018-07-17T16:36:17.800Z,28.20
2018-07-17T16:41:37.697Z,28.30
2018-07-17T16:49:51.135Z,27.00
2018-07-17T16:52:29.528Z,27.50
2018-07-17T16:55:07.138Z,27.80
2018-07-17T16:57:46.589Z,28.40
2018-07-17T17:00:26.927Z,28.10
2018-07-17T17:11:20.299Z,27.60
2018-07-17T17:13:57.271Z,27.30
2018-07-17T17:16:38.492Z,26.50
2018-07-17T17:19:18.319Z,26.50
2018-07-17T17:22:02.350Z,27.90
2018-07-17T17:24:47.725Z,27.90
2018-07-17T17:27:48.590Z,28.40
2018-07-17T17:36:17.260Z,27.30
2018-07-17T17:39:06.473Z,27.30
2018-07-17T17:44:45.873Z,26.70
2018-07-17T17:53:19.318Z,26.70
2018-07-17T17:56:11.313Z,26.70
2018-07-17T18:07:55.994Z,25.80
2018-07-17T18:10:41.545Z,25.70
2018-07-17T18:13:36.521Z,25.30
2018-07-17T18:16:33.647Z,25.40
2018-07-17T18:33:50.672Z,25.40
2018-07-17T18:36:47.840Z,25.10
2018-07-17T18:39:42.863Z,25.10
2018-07-17T18:42:31.695Z,24.60
2018-07-17T18:48:17.591Z,24.20
2018-07-17T19:06:09.415Z,23.40
2018-07-17T19:15:08.528Z,23.20
2018-07-17T19:23:42.720Z,23.30
2018-07-17T19:26:40.009Z,23.40
2018-07-17T19:29:37.854Z,22.80
2018-07-17T19:32:37.478Z,22.70
2018-07-17T19:35:30.792Z,22.80
2018-07-17T19:41:13.882Z,22.50
2018-07-17T19:44:02.610Z,22.60
2018-07-17T19:46:56.643Z,22.50
2018-07-17T20:01:41.658Z,22.20
2018-07-17T20:04:30.276Z,22.00
2018-07-17T20:07:26.329Z,22.10
2018-07-17T20:16:08.147Z,21.90
2018-07-17T20:18:59.350Z,21.80
2018-07-17T20:21:49.662Z,21.80
2018-07-17T20:27:45.409Z,21.50
2018-07-17T20:33:42.753Z,21.30
2018-07-17T20:36:29.831Z,21.30
2018-07-17T20:45:12.422Z,21.10
2018-07-17T20:48:16.002Z,21.10
2018-07-17T20:51:04.984Z,20.60
2018-07-17T21:02:32.914Z,20.80
2018-07-17T21:08:17.615Z,20.60
2018-07-17T21:16:59.600Z,20.60
2018-07-17T21:19:49.462Z,20.40
2018-07-17T21:25:45.731Z,20.50
2018-07-17T21:28:35.083Z,20.20
2018-07-17T21:40:24.346Z,19.90
2018-07-17T21:43:17.709Z,19.90
2018-07-17T21:46:11.151Z,19.90
2018-07-17T21:51:57.517Z,20.10
2018-07-17T21:54:55.758Z,20.00
2018-07-17T21:57:44.833Z,19.70
2018-07-17T22:06:28.505Z,19.80
2018-07-17T22:12:20.161Z,19.70
2018-07-17T22:15:13.933Z,19.60
2018-07-17T22:21:11.060Z,19.00
2018-07-17T22:26:59.032Z,19.30
2018-07-17T22:29:54.636Z,19.40
2018-07-17T22:35:49.377Z,19.00
2018-07-17T22:41:31.418Z,19.00
2018-07-17T22:50:19.304Z,19.10
2018-07-17T23:02:05.421Z,19.00
2018-07-17T23:05:00.129Z,19.10
2018-07-17T23:07:47.236Z,18.80
2018-07-17T23:13:47.140Z,18.30
2018-07-17T23:16:41.858Z,17.90
2018-07-17T23:28:35.229Z,18.30
2018-07-17T23:40:19.552Z,18.50
2018-07-17T23:49:04.113Z,18.40
2018-07-17T23:57:48.993Z,18.40
